Time;durP1;ratioP1;P1;durP2;ratioP2;P2;SDS_P1;SDS_P2;PMS_P1;PMS_P2;Temp;Humidity;BMP_temperature;BMP_pressure;BME280_temperature;BME280_humidity;BME280_pressure;Samples;Min_cycle;Max_cycle;Signal;HPM_P1;HPM_P2
2024/03/18 00:03:34;;;;;;;5.57;4.45;;;;;;;12.46;57.18;100315.38;10427228;28;20040;-61
2024/03/18 00:08:34;;;;;;;4.78;4.38;;;;;;;12.41;56.92;100299.78;10423369;28;20423;-61
2024/03/18 00:13:35;;;;;;;4.90;4.32;;;;;;;12.38;57.19;100290.22;10426201;28;20131;-62
2024/03/18 00:18:37;;;;;;;5.65;4.45;;;;;;;12.33;56.88;100291.59;10428493;28;20666;-63
2024/03/18 00:23:37;;;;;;;4.78;4.38;;;;;;;12.29;56.81;100295.50;10428951;28;20133;-60
2024/03/18 00:28:39;;;;;;;7.07;4.93;;;;;;;12.23;56.90;100282.72;10425621;28;20133;-61
2024/03/18 00:33:40;;;;;;;5.13;4.63;;;;;;;12.19;56.93;100279.47;10430419;28;20136;-62
2024/03/18 00:38:41;;;;;;;5.38;4.88;;;;;;;12.19;57.33;100276.81;10393297;28;20128;-61
2024/03/18 00:43:42;;;;;;;5.25;4.75;;;;;;;12.21;57.38;100266.84;10440505;28;20210;-60
2024/03/18 00:48:43;;;;;;;5.07;4.65;;;;;;;12.20;57.17;100258.00;10440672;28;20570;-61
2024/03/18 00:53:45;;;;;;;5.63;4.82;;;;;;;12.12;57.34;100256.97;10415933;28;20049;-61
2024/03/18 00:58:45;;;;;;;4.95;4.45;;;;;;;12.09;57.47;100254.56;10433158;28;20124;-61
2024/03/18 01:03:45;;;;;;;6.57;5.20;;;;;;;12.09;57.67;100251.91;10434807;28;20091;-61
2024/03/18 01:08:47;;;;;;;6.03;4.72;;;;;;;12.01;57.80;100245.41;10412380;28;20480;-61
2024/03/18 01:13:48;;;;;;;6.32;4.85;;;;;;;12.09;58.20;100249.22;10403659;28;20483;-61
2024/03/18 01:18:49;;;;;;;7.28;6.15;;;;;;;12.07;57.85;100244.03;10436988;28;20144;-61
2024/03/18 01:23:50;;;;;;;6.65;5.32;;;;;;;12.09;58.60;100243.91;10429720;28;20164;-61
2024/03/18 01:28:51;;;;;;;6.10;5.50;;;;;;;11.98;58.22;100223.47;10421502;28;20115;-59
2024/03/18 01:33:53;;;;;;;5.35;4.85;;;;;;;11.94;58.30;100224.72;10422980;28;20119;-60
2024/03/18 01:38:53;;;;;;;6.82;5.22;;;;;;;12.01;58.86;100229.38;10424623;28;20346;-61
2024/03/18 01:43:55;;;;;;;9.30;6.32;;;;;;;12.00;58.86;100225.03;10424045;28;20048;-60
2024/03/18 01:48:56;;;;;;;6.97;5.57;;;;;;;12.05;58.79;100223.78;10410211;28;20756;-58
2024/03/18 01:53:57;;;;;;;6.82;6.13;;;;;;;11.95;59.06;100213.91;10420984;28;20159;-61
2024/03/18 01:59:04;;;;;;;6.88;6.03;;;;;;;11.94;59.32;100212.22;10425341;28;20662;-61
2024/03/18 02:04:11;;;;;;;6.63;5.55;;;;;;;11.93;59.16;100205.19;10422831;28;20160;-62
2024/03/18 02:09:12;;;;;;;6.15;4.93;;;;;;;11.92;59.15;100208.81;10434625;28;20128;-61
2024/03/18 02:14:13;;;;;;;5.10;4.55;;;;;;;11.82;59.40;100202.59;10417249;28;20552;-61
2024/03/18 02:19:13;;;;;;;5.50;4.88;;;;;;;11.86;59.68;100204.03;10428074;28;20490;-61
2024/03/18 02:24:15;;;;;;;5.85;4.60;;;;;;;11.87;59.86;100189.69;10411071;28;20048;-60
2024/03/18 02:29:16;;;;;;;5.68;4.80;;;;;;;11.74;59.74;100162.41;10425637;28;20211;-61
2024/03/18 02:34:18;;;;;;;7.07;5.53;;;;;;;11.88;60.18;100167.38;10428614;28;20132;-60
2024/03/18 02:39:22;;;;;;;7.07;5.13;;;;;;;11.92;60.19;100163.47;10419134;28;20151;-62
2024/03/18 02:44:22;;;;;;;6.25;5.70;;;;;;;11.92;60.45;100158.16;10410591;28;20861;-61
2024/03/18 02:49:24;;;;;;;6.78;6.07;;;;;;;11.88;59.89;100162.06;10419331;28;20056;-61
2024/03/18 02:54:24;;;;;;;7.80;5.53;;;;;;;11.64;60.11;100111.72;10420644;28;20131;-62
2024/03/18 02:59:25;;;;;;;7.50;5.75;;;;;;;11.91;60.38;100153.78;10415781;28;21627;-60
2024/03/18 03:04:26;;;;;;;7.07;6.32;;;;;;;11.90;60.34;100148.56;10406402;28;20701;-61
2024/03/18 03:09:26;;;;;;;6.32;5.60;;;;;;;11.92;60.37;100142.13;10411296;28;20101;-60
2024/03/18 03:14:27;;;;;;;7.38;5.57;;;;;;;11.93;60.46;100141.16;10422136;28;20048;-61
2024/03/18 03:19:27;;;;;;;8.90;5.70;;;;;;;11.89;60.20;100133.53;10431292;28;20063;-64
2024/03/18 03:24:28;;;;;;;6.63;5.60;;;;;;;11.88;60.18;100127.38;10431422;28;20063;-62
2024/03/18 03:29:29;;;;;;;7.30;5.85;;;;;;;11.88;60.05;100142.53;10432637;28;20087;-60
2024/03/18 03:34:30;;;;;;;6.10;5.55;;;;;;;11.81;59.90;100139.56;10409530;28;20182;-60
2024/03/18 03:39:30;;;;;;;6.88;5.75;;;;;;;11.76;60.07;100131.13;10416997;28;20563;-62
2024/03/18 03:44:31;;;;;;;5.65;5.13;;;;;;;11.78;60.24;100113.16;10413199;28;20048;-61
2024/03/18 03:49:32;;;;;;;5.97;5.38;;;;;;;11.77;60.24;100120.31;10415209;28;20079;-62
2024/03/18 03:54:32;;;;;;;7.38;6.60;;;;;;;11.77;60.22;100114.13;10425166;28;20642;-61
2024/03/18 03:59:33;;;;;;;6.85;5.10;;;;;;;11.81;60.63;100105.75;10422998;28;20071;-62
2024/03/18 04:04:34;;;;;;;8.02;5.47;;;;;;;11.86;60.33;100108.00;10392834;28;20132;-59
2024/03/18 04:09:35;;;;;;;6.28;5.60;;;;;;;11.87;60.56;100109.69;10406654;28;20146;-60
2024/03/18 04:14:35;;;;;;;7.07;5.93;;;;;;;11.89;60.86;100107.75;10426284;28;20051;-60
2024/03/18 04:19:37;;;;;;;8.07;6.15;;;;;;;11.90;60.84;100103.22;10428388;28;20574;-62
2024/03/18 04:24:38;;;;;;;9.20;5.70;;;;;;;11.87;60.80;100093.69;10429280;28;20143;-63
2024/03/18 04:29:39;;;;;;;6.78;5.80;;;;;;;11.88;60.81;100095.38;10419449;28;20053;-60
2024/03/18 04:34:40;;;;;;;6.70;6.00;;;;;;;11.87;61.10;100077.66;10434760;28;20131;-61
2024/03/18 04:39:40;;;;;;;7.82;5.70;;;;;;;11.84;60.89;100083.28;10423231;28;20775;-60
2024/03/18 04:44:42;;;;;;;7.55;5.53;;;;;;;11.83;61.04;100087.78;10421549;28;20071;-61
2024/03/18 04:49:42;;;;;;;5.43;4.57;;;;;;;11.79;61.21;100090.84;10385659;28;20128;-60
2024/03/18 04:54:43;;;;;;;5.78;5.07;;;;;;;11.84;60.96;100093.94;10434176;28;20048;-60
2024/03/18 04:59:43;;;;;;;6.57;5.97;;;;;;;11.83;61.12;100087.78;10439800;28;20067;-63
2024/03/18 05:04:48;;;;;;;6.25;4.97;;;;;;;11.82;60.85;100080.75;10402161;28;20107;-61
2024/03/18 05:09:53;;;;;;;5.78;5.03;;;;;;;11.77;60.85;100080.31;10424669;28;20601;-61
2024/03/18 05:14:55;;;;;;;7.57;5.75;;;;;;;11.65;60.95;100052.91;10419858;28;20135;-61
2024/03/18 05:19:55;;;;;;;7.20;5.68;;;;;;;11.82;60.94;100069.25;10420448;28;20144;-61
2024/03/18 05:24:56;;;;;;;6.60;4.90;;;;;;;11.82;61.07;100069.25;10434872;28;20055;-61
2024/03/18 05:29:56;;;;;;;6.90;5.32;;;;;;;11.82;60.93;100074.59;10429617;28;20170;-62
2024/03/18 05:34:57;;;;;;;6.30;5.45;;;;;;;11.85;60.81;100074.31;10388245;28;20526;-60
2024/03/18 05:40:03;;;;;;;6.10;5.35;;;;;;;11.83;60.98;100065.63;10400306;28;20186;-61
2024/03/18 05:45:04;;;;;;;6.25;4.55;;;;;;;11.84;60.75;100075.28;10424552;28;20553;-60
2024/03/18 05:50:05;;;;;;;6.40;5.10;;;;;;;11.84;60.56;100072.63;10423925;28;20056;-60
2024/03/18 05:55:06;;;;;;;6.75;4.60;;;;;;;11.66;60.77;100049.28;10428599;28;20570;-61
2024/03/18 06:00:07;;;;;;;4.95;4.30;;;;;;;11.83;60.81;100071.78;10417543;28;20121;-61
2024/03/18 06:05:08;;;;;;;6.95;5.32;;;;;;;11.88;60.79;100082.03;10405986;28;20632;-61
2024/03/18 06:10:09;;;;;;;6.10;5.40;;;;;;;11.90;60.51;100081.91;10424693;28;20122;-62
2024/03/18 06:15:11;;;;;;;6.78;4.82;;;;;;;11.90;60.19;100081.91;10419667;28;20123;-60
2024/03/18 06:20:12;;;;;;;6.05;5.45;;;;;;;11.91;59.87;100095.09;10419200;28;20059;-61
2024/03/18 06:30:31;;;;;;;8.05;6.35;;;;;;;11.93;59.90;100093.16;10419349;28;20298;-61
2024/03/18 06:35:31;;;;;;;6.40;5.43;;;;;;;11.94;60.18;100105.53;10429580;28;20053;-59
2024/03/18 06:40:32;;;;;;;7.35;5.50;;;;;;;11.95;60.97;100101.03;10426414;28;20228;-61
2024/03/18 06:45:34;;;;;;;8.40;5.72;;;;;;;11.99;62.11;100108.66;10411985;28;20084;-60
2024/03/18 06:50:35;;;;;;;7.40;6.05;;;;;;;11.96;64.75;100110.72;10404729;28;20225;-61
2024/03/18 06:55:36;;;;;;;6.72;5.72;;;;;;;11.81;66.12;100096.88;10415057;28;20173;-61
2024/03/18 07:00:37;;;;;;;7.68;6.28;;;;;;;11.93;68.15;100114.50;10420286;28;20059;-62
2024/03/18 07:05:38;;;;;;;7.78;6.55;;;;;;;11.78;70.40;100097.16;10400760;28;20638;-60
2024/03/18 07:10:39;;;;;;;7.05;6.45;;;;;;;11.84;72.11;100109.94;10416094;28;20569;-62
2024/03/18 07:15:39;;;;;;;8.57;6.32;;;;;;;11.79;72.34;100118.34;10408834;28;20068;-63
2024/03/18 07:20:40;;;;;;;7.13;6.43;;;;;;;11.72;73.83;100111.03;10410629;28;20064;-58
2024/03/18 07:25:40;;;;;;;6.90;6.20;;;;;;;11.74;74.19;100109.94;10422753;28;20070;-60
2024/03/18 07:30:46;;;;;;;8.75;7.10;;;;;;;11.64;74.39;100104.53;10426930;28;20150;-61
2024/03/18 07:35:47;;;;;;;7.05;5.55;;;;;;;11.73;74.66;100110.91;10405832;28;20128;-59
2024/03/18 07:40:50;;;;;;;7.25;6.18;;;;;;;11.65;72.44;100106.25;10372341;28;20136;-63
2024/03/18 07:45:50;;;;;;;7.93;6.28;;;;;;;11.62;73.17;100108.31;10414588;28;20168;-59
2024/03/18 07:50:58;;;;;;;6.63;5.93;;;;;;;11.62;72.93;100100.31;10409176;28;20139;-59
2024/03/18 07:56:00;;;;;;;7.38;5.65;;;;;;;11.62;72.86;100100.31;10423599;28;20124;-62
2024/03/18 08:01:01;;;;;;;10.60;8.70;;;;;;;11.72;72.02;100117.19;10428000;28;20139;-62
2024/03/18 08:06:10;;;;;;;9.82;7.63;;;;;;;11.67;72.65;100120.28;10417892;28;20117;-61
2024/03/18 08:11:11;;;;;;;7.05;5.95;;;;;;;11.63;73.68;100113.53;10415836;28;20049;-60
2024/03/18 08:16:12;;;;;;;8.35;6.32;;;;;;;11.70;73.96;100113.00;10415650;28;20618;-62
2024/03/18 08:21:13;;;;;;;7.78;6.35;;;;;;;11.71;73.39;100114.66;10427814;28;20175;-63
2024/03/18 08:26:15;;;;;;;9.20;6.65;;;;;;;11.67;74.24;100095.44;10404048;28;20135;-62
2024/03/18 08:31:16;;;;;;;11.23;9.18;;;;;;;11.80;74.22;100119.19;10386746;28;20519;-61
2024/03/18 08:36:16;;;;;;;8.82;7.65;;;;;;;11.80;74.01;100112.06;10418239;28;20053;-61
2024/03/18 08:41:18;;;;;;;14.85;6.80;;;;;;;11.83;73.74;100118.94;10411396;28;20053;-59
2024/03/18 08:46:20;;;;;;;10.20;7.15;;;;;;;11.96;74.08;100116.06;10424164;28;20132;-60
2024/03/18 08:51:22;;;;;;;12.73;7.10;;;;;;;12.00;73.66;100114.81;10405095;28;20156;-63
2024/03/18 08:56:22;;;;;;;9.25;7.43;;;;;;;11.99;73.65;100118.44;10411236;28;20050;-61
2024/03/18 09:01:22;;;;;;;9.80;7.90;;;;;;;12.03;73.39;100126.03;10417098;28;20119;-63
2024/03/18 09:06:23;;;;;;;11.23;8.32;;;;;;;11.99;72.12;100119.31;10429337;28;20084;-61
2024/03/18 09:11:24;;;;;;;8.10;7.30;;;;;;;12.03;73.12;100119.88;10431700;28;20041;-62
2024/03/18 09:16:24;;;;;;;9.95;7.75;;;;;;;12.05;73.40;100122.41;10430150;28;20044;-61
2024/03/18 09:21:25;;;;;;;10.82;7.93;;;;;;;12.06;72.40;100119.59;10432805;28;20067;-60
2024/03/18 09:26:25;;;;;;;10.10;8.57;;;;;;;12.15;73.35;100118.78;10391670;28;20055;-60
2024/03/18 09:31:26;;;;;;;10.68;8.18;;;;;;;12.22;73.25;100126.22;10421851;28;20060;-62
2024/03/18 09:36:26;;;;;;;9.57;8.55;;;;;;;12.28;73.62;100123.88;10422502;28;20070;-62
2024/03/18 09:41:28;;;;;;;9.60;8.70;;;;;;;12.20;72.65;100116.56;10419104;28;20052;-61
2024/03/18 09:46:28;;;;;;;9.30;8.07;;;;;;;12.29;72.18;100130.88;10432228;28;20179;-61
2024/03/18 09:51:29;;;;;;;9.95;8.10;;;;;;;12.19;72.58;100119.38;10433134;28;20098;-62
2024/03/18 09:56:30;;;;;;;14.05;8.50;;;;;;;12.15;73.08;100109.94;10420698;28;20147;-61
2024/03/18 10:01:32;;;;;;;8.68;7.82;;;;;;;12.39;72.78;100133.56;10410547;28;20080;-63
2024/03/18 10:06:33;;;;;;;9.95;8.85;;;;;;;12.49;72.01;100130.91;10406669;28;20123;-61
2024/03/18 10:11:34;;;;;;;10.88;8.73;;;;;;;12.61;72.55;100135.16;10419762;28;20124;-60
2024/03/18 10:16:34;;;;;;;12.07;9.70;;;;;;;12.58;71.97;100118.56;10434143;28;20614;-61
2024/03/18 10:21:38;;;;;;;9.35;8.32;;;;;;;12.60;72.04;100121.94;10417590;28;20051;-61
2024/03/18 10:26:39;;;;;;;12.77;8.93;;;;;;;12.70;71.24;100134.31;10429781;28;20142;-60
2024/03/18 10:31:40;;;;;;;10.80;8.98;;;;;;;12.73;71.51;100127.84;10411114;28;20091;-61
2024/03/18 10:36:43;;;;;;;9.93;8.82;;;;;;;12.77;71.99;100129.22;10434736;28;20186;-62
2024/03/18 10:41:47;;;;;;;9.95;8.60;;;;;;;12.86;71.95;100127.56;10429545;28;20262;-62
2024/03/18 10:46:50;;;;;;;9.60;8.20;;;;;;;12.98;72.82;100126.41;10435815;28;20593;-62
2024/03/18 10:51:52;;;;;;;9.50;8.57;;;;;;;13.05;72.50;100132.88;10415970;28;20591;-61
2024/03/18 10:56:52;;;;;;;8.98;7.88;;;;;;;13.09;72.74;100126.28;10420268;28;20131;-61
2024/03/18 11:01:53;;;;;;;11.18;8.63;;;;;;;13.19;73.06;100120.91;10435424;28;20048;-60
2024/03/18 11:06:55;;;;;;;9.40;8.43;;;;;;;13.32;74.52;100127.78;10416808;28;20135;-60
2024/03/18 11:11:55;;;;;;;10.57;9.10;;;;;;;13.29;75.34;100139.59;10402853;28;20132;-63
2024/03/18 11:16:56;;;;;;;10.60;9.60;;;;;;;13.17;76.11;100138.09;10411552;28;20052;-62
2024/03/18 11:21:58;;;;;;;10.85;9.68;;;;;;;13.19;76.55;100155.63;10415985;28;20140;-61
2024/03/18 11:27:00;;;;;;;10.70;9.20;;;;;;;13.23;76.50;100142.84;10413594;28;20655;-62
2024/03/18 11:32:01;;;;;;;11.02;9.82;;;;;;;13.46;76.93;100155.91;10430907;28;20132;-63
2024/03/18 11:37:04;;;;;;;10.00;8.82;;;;;;;13.91;75.33;100155.19;10422739;28;20533;-61
2024/03/18 11:42:05;;;;;;;10.40;9.32;;;;;;;13.91;74.60;100149.84;10411324;28;20463;-61
2024/03/18 11:47:08;;;;;;;11.10;9.73;;;;;;;13.76;74.92;100136.94;10426540;28;20188;-62
2024/03/18 11:52:12;;;;;;;11.07;9.98;;;;;;;14.02;74.98;100154.16;10424025;28;20124;-61
2024/03/18 11:57:14;;;;;;;9.85;8.63;;;;;;;14.54;73.31;100150.91;10428463;28;20238;-60
2024/03/18 12:02:16;;;;;;;10.90;9.23;;;;;;;14.81;72.14;100145.50;10422763;28;20167;-61
2024/03/18 12:07:16;;;;;;;9.88;8.77;;;;;;;14.92;71.07;100155.16;10393234;28;20208;-61
2024/03/18 12:12:17;;;;;;;9.70;8.70;;;;;;;14.76;70.98;100161.19;10418170;28;20765;-60
2024/03/18 12:17:17;;;;;;;9.23;8.25;;;;;;;14.52;71.54;100137.66;10342446;28;20738;-59
2024/03/18 12:22:23;;;;;;;12.15;9.73;;;;;;;14.43;72.14;100152.81;10401289;28;20049;-62
2024/03/18 12:32:46;;;;;;;11.38;9.57;;;;;;;16.26;66.17;100137.84;10437198;28;20119;-60
2024/03/18 12:37:48;;;;;;;13.57;9.88;;;;;;;16.55;65.11;100137.41;10379286;28;20144;-61
2024/03/18 12:42:50;;;;;;;11.85;10.60;;;;;;;17.59;61.80;100126.97;10401661;28;20128;-64
2024/03/18 12:47:53;;;;;;;13.07;11.10;;;;;;;17.57;60.06;100130.84;10409506;28;20113;-60
2024/03/18 12:52:55;;;;;;;11.18;9.98;;;;;;;17.18;62.00;100126.22;10424958;28;20720;-61
2024/03/18 12:57:55;;;;;;;12.18;10.45;;;;;;;16.08;64.16;100120.00;10426888;28;20150;-62
2024/03/18 13:02:56;;;;;;;11.38;10.07;;;;;;;15.98;65.88;100129.19;10382173;28;20211;-61
2024/03/18 13:07:56;;;;;;;10.50;9.45;;;;;;;15.73;66.59;100126.34;10406466;28;20091;-62
2024/03/18 13:12:58;;;;;;;12.43;11.20;;;;;;;15.61;67.52;100133.00;10406168;28;20354;-60
2024/03/18 13:17:59;;;;;;;11.48;10.30;;;;;;;15.45;67.38;100125.72;10405430;28;20151;-61
2024/03/18 13:22:59;;;;;;;10.27;9.35;;;;;;;15.36;69.00;100125.66;10428470;28;20181;-62
2024/03/18 13:27:59;;;;;;;10.07;8.95;;;;;;;15.39;68.77;100124.50;10413659;28;20055;-62
2024/03/18 13:33:00;;;;;;;13.63;9.90;;;;;;;15.79;67.02;100108.81;10407551;28;20127;-62
2024/03/18 13:38:02;;;;;;;10.68;9.57;;;;;;;16.13;66.07;100127.56;10419610;28;20586;-60
2024/03/18 13:43:04;;;;;;;11.32;10.23;;;;;;;16.42;65.79;100123.59;10431348;28;20131;-61
2024/03/18 13:48:06;;;;;;;10.00;8.95;;;;;;;16.24;65.65;100129.09;10430379;28;20132;-62
2024/03/18 13:53:07;;;;;;;11.15;10.05;;;;;;;16.22;65.45;100129.25;10394347;28;20215;-63
2024/03/18 13:58:07;;;;;;;10.00;9.00;;;;;;;17.03;64.18;100123.38;10431537;28;20051;-62
2024/03/18 14:03:08;;;;;;;11.32;10.15;;;;;;;16.98;62.59;100126.56;10419973;28;20049;-62
2024/03/18 14:08:08;;;;;;;11.50;10.43;;;;;;;16.72;63.42;100118.63;10415284;28;20056;-61
2024/03/18 14:13:09;;;;;;;11.15;9.95;;;;;;;16.71;63.42;100115.09;10436430;28;20052;-61
2024/03/18 14:18:09;;;;;;;10.30;9.35;;;;;;;16.65;63.60;100114.91;10433460;28;20078;-60
2024/03/18 14:23:09;;;;;;;10.43;8.53;;;;;;;16.65;64.44;100131.03;10430897;28;20374;-61
2024/03/18 14:28:10;;;;;;;10.15;8.82;;;;;;;16.59;63.67;100117.25;10385701;28;20296;-61
2024/03/18 14:33:11;;;;;;;9.40;8.23;;;;;;;16.38;64.69;100116.91;10425806;28;20137;-60
2024/03/18 14:38:12;;;;;;;8.80;7.85;;;;;;;16.53;64.29;100115.25;10425883;28;20044;-61
2024/03/18 14:43:12;;;;;;;9.10;8.15;;;;;;;16.71;63.19;100120.47;10395633;28;20048;-61
2024/03/18 14:48:16;;;;;;;9.20;8.30;;;;;;;16.64;63.67;100113.25;10406970;28;20173;-62
2024/03/18 14:53:17;;;;;;;9.70;8.43;;;;;;;16.67;63.70;100118.28;10404582;28;20127;-62
2024/03/18 14:58:18;;;;;;;8.82;7.93;;;;;;;16.60;63.17;100113.59;10426870;28;20056;-61
2024/03/18 15:03:18;;;;;;;10.88;8.85;;;;;;;16.42;63.74;100120.91;10410612;28;20468;-60
2024/03/18 15:08:19;;;;;;;8.85;7.82;;;;;;;16.32;64.77;100114.84;10408427;28;20667;-61
2024/03/18 15:13:19;;;;;;;7.93;6.85;;;;;;;16.31;65.00;100118.56;10428096;28;20065;-61
2024/03/18 15:18:20;;;;;;;7.32;6.65;;;;;;;16.31;64.98;100118.56;10402939;28;20448;-60
2024/03/18 15:23:27;;;;;;;7.05;6.30;;;;;;;16.01;64.92;100110.91;10391408;28;20083;-61
2024/03/18 15:28:28;;;;;;;6.40;5.80;;;;;;;15.84;65.75;100106.50;10411920;28;20151;-61
2024/03/18 15:33:28;;;;;;;8.75;6.30;;;;;;;15.72;66.38;100101.38;10424145;28;20088;-61
2024/03/18 15:38:29;;;;;;;6.93;6.22;;;;;;;15.60;67.28;100096.44;10420751;28;20186;-62
2024/03/18 15:43:30;;;;;;;7.30;6.60;;;;;;;15.49;68.87;100084.13;10409616;28;20152;-62
2024/03/18 15:48:31;;;;;;;6.95;6.25;;;;;;;15.48;71.95;100086.00;10417389;28;20362;-62
2024/03/18 15:53:32;;;;;;;8.23;7.10;;;;;;;15.43;74.76;100093.66;10428025;28;20127;-61
2024/03/18 15:58:35;;;;;;;7.05;6.40;;;;;;;15.37;74.15;100092.47;10407132;28;20115;-62
2024/03/18 16:03:36;;;;;;;7.95;7.07;;;;;;;15.22;75.41;100077.13;10425020;28;20131;-63
2024/03/18 16:08:37;;;;;;;7.57;6.72;;;;;;;15.26;74.31;100083.84;10429708;28;20046;-61
2024/03/18 16:13:38;;;;;;;7.85;7.10;;;;;;;15.35;74.15;100097.13;10404887;28;20147;-64
2024/03/18 16:18:38;;;;;;;6.90;6.18;;;;;;;15.26;73.97;100097.25;10437147;28;20060;-62
2024/03/18 16:23:39;;;;;;;8.52;7.18;;;;;;;15.19;74.36;100122.03;10429664;28;20056;-62
2024/03/18 16:28:42;;;;;;;7.60;6.30;;;;;;;15.23;74.41;100119.88;10390509;28;20170;-63
2024/03/18 16:33:43;;;;;;;7.15;6.20;;;;;;;15.32;74.46;100128.81;10431641;28;20360;-63
2024/03/18 16:38:45;;;;;;;7.07;6.38;;;;;;;15.35;73.64;100129.31;10416708;28;20052;-64
2024/03/18 16:43:46;;;;;;;6.65;6.05;;;;;;;15.26;73.37;100122.22;10431696;28;20155;-62
2024/03/18 16:48:48;;;;;;;7.05;6.20;;;;;;;15.19;73.25;100119.34;10401102;28;20127;-61
2024/03/18 16:53:49;;;;;;;9.40;6.40;;;;;;;15.05;73.43;100122.56;10419494;28;20140;-61
2024/03/18 16:58:49;;;;;;;5.72;5.05;;;;;;;14.94;73.38;100117.47;10422907;28;20127;-61
2024/03/18 17:03:50;;;;;;;8.20;6.53;;;;;;;14.78;73.31;100123.53;10402423;28;20441;-62
2024/03/18 17:08:50;;;;;;;6.82;6.05;;;;;;;14.64;73.91;100128.44;10435478;28;20041;-65
2024/03/18 17:13:51;;;;;;;6.95;5.85;;;;;;;14.60;75.02;100148.44;10418781;28;20048;-61
2024/03/18 17:18:51;;;;;;;8.38;6.63;;;;;;;14.48;75.70;100147.81;10400287;28;20139;-62
2024/03/18 17:23:52;;;;;;;6.65;6.00;;;;;;;14.44;75.44;100154.50;10372760;28;20579;-62
2024/03/18 17:28:54;;;;;;;6.28;5.68;;;;;;;14.43;76.07;100160.84;10427393;28;20139;-61
2024/03/18 17:33:55;;;;;;;11.48;9.40;;;;;;;14.38;75.48;100172.97;10405656;28;20135;-62
2024/03/18 17:38:55;;;;;;;7.28;6.45;;;;;;;14.38;75.62;100171.16;10405278;28;20052;-61
2024/03/18 17:43:57;;;;;;;6.82;6.18;;;;;;;14.35;75.68;100173.28;10399284;28;20124;-62
2024/03/18 17:48:57;;;;;;;7.95;6.97;;;;;;;14.31;76.04;100178.09;10416510;28;20051;-62
2024/03/18 17:53:58;;;;;;;7.50;6.70;;;;;;;14.28;76.81;100192.63;10432852;28;20124;-61
2024/03/18 17:59:07;;;;;;;8.52;7.18;;;;;;;14.30;77.14;100198.66;10431923;28;20698;-65
2024/03/18 18:04:08;;;;;;;7.22;6.53;;;;;;;14.31;77.63;100199.53;10404641;28;20135;-62
2024/03/18 18:09:09;;;;;;;8.98;6.80;;;;;;;14.29;77.65;100217.56;10416719;28;20068;-61
2024/03/18 18:14:10;;;;;;;7.88;6.53;;;;;;;14.28;77.86;100223.91;10411492;28;20071;-62
2024/03/18 18:19:10;;;;;;;7.82;7.00;;;;;;;14.26;77.54;100228.56;10414333;28;20048;-62
2024/03/18 18:24:11;;;;;;;7.13;6.22;;;;;;;14.28;77.69;100223.91;10423314;28;20463;-63
2024/03/18 18:29:12;;;;;;;7.43;6.70;;;;;;;14.22;77.30;100225.34;10429875;28;20175;-63
2024/03/18 18:34:12;;;;;;;8.27;7.47;;;;;;;14.07;77.86;100219.63;10431998;28;20073;-62
2024/03/18 18:39:13;;;;;;;7.72;6.82;;;;;;;14.12;78.13;100236.09;10433326;28;20074;-62
2024/03/18 18:44:15;;;;;;;9.63;7.13;;;;;;;14.14;78.47;100247.50;10435854;28;20110;-62
2024/03/18 18:49:15;;;;;;;9.15;6.50;;;;;;;14.12;78.20;100249.47;10422694;28;20182;-60
2024/03/18 18:54:18;;;;;;;8.65;7.75;;;;;;;14.11;78.18;100247.81;10432039;28;20044;-62
2024/03/18 18:59:21;;;;;;;7.78;6.90;;;;;;;14.07;78.34;100254.44;10408710;28;20115;-62
2024/03/18 19:04:22;;;;;;;7.13;6.43;;;;;;;14.06;78.29;100259.94;10409088;28;20159;-63
2024/03/18 19:09:29;;;;;;;7.47;6.72;;;;;;;14.06;78.46;100266.13;10416615;28;20057;-62
2024/03/18 19:14:29;;;;;;;8.07;6.50;;;;;;;14.03;78.36;100266.41;10400021;28;20160;-64
2024/03/18 19:19:29;;;;;;;8.63;7.32;;;;;;;14.00;78.80;100263.19;10404673;28;20056;-62
2024/03/18 19:24:31;;;;;;;16.27;15.00;;;;;;;13.91;78.65;100264.91;10410620;28;20127;-62
2024/03/18 19:29:32;;;;;;;9.98;8.88;;;;;;;13.79;80.00;100274.91;10391335;28;20057;-62
2024/03/18 19:34:32;;;;;;;12.73;11.63;;;;;;;13.75;80.66;100278.88;10419649;28;20067;-62
2024/03/18 19:39:34;;;;;;;20.08;18.38;;;;;;;13.75;80.80;100279.72;10406687;28;20147;-61
2024/03/18 19:44:35;;;;;;;9.55;8.57;;;;;;;13.73;80.74;100280.84;10400549;28;20179;-63
2024/03/18 19:49:35;;;;;;;11.73;10.77;;;;;;;13.73;81.43;100280.84;10429858;28;20048;-62
2024/03/18 19:54:38;;;;;;;10.52;9.43;;;;;;;13.75;81.68;100282.41;10423829;28;20664;-62
2024/03/18 19:59:39;;;;;;;13.27;12.18;;;;;;;13.78;82.07;100283.94;10421692;28;20123;-61
2024/03/18 20:04:39;;;;;;;10.50;9.52;;;;;;;13.72;82.71;100290.72;10427391;28;20040;-61
2024/03/18 20:09:40;;;;;;;10.35;9.43;;;;;;;13.72;83.46;100296.06;10428589;28;20049;-61
2024/03/18 20:14:42;;;;;;;11.13;10.05;;;;;;;13.71;83.68;100290.88;10389155;28;20071;-61
2024/03/18 20:19:42;;;;;;;15.57;14.15;;;;;;;13.70;83.93;100290.00;10412767;28;20543;-62
2024/03/18 20:24:43;;;;;;;14.93;13.35;;;;;;;13.67;84.64;100292.13;10424309;28;20044;-63
2024/03/18 20:29:43;;;;;;;11.90;10.73;;;;;;;13.64;85.54;100287.91;10424933;28;20044;-62
2024/03/18 20:34:44;;;;;;;13.13;12.00;;;;;;;13.66;85.76;100298.44;10410296;28;20044;-62
2024/03/18 20:39:45;;;;;;;39.88;36.38;;;;;;;13.65;86.06;100299.47;10420573;28;20128;-62
2024/03/18 20:44:47;;;;;;;13.77;12.35;;;;;;;13.66;85.84;100298.44;10424428;28;20446;-62
2024/03/18 20:49:47;;;;;;;10.60;9.57;;;;;;;13.63;86.37;100285.38;10397416;28;20140;-61
2024/03/18 20:54:47;;;;;;;13.60;12.30;;;;;;;13.58;86.53;100293.81;10403230;28;20601;-59
2024/03/18 20:59:48;;;;;;;13.80;12.40;;;;;;;13.58;86.80;100293.81;10428447;28;20045;-62
2024/03/18 21:04:49;;;;;;;12.40;11.25;;;;;;;13.57;86.64;100297.47;10421558;28;20044;-62
2024/03/18 21:09:50;;;;;;;14.38;11.57;;;;;;;13.56;87.27;100301.16;10437939;28;20183;-61
2024/03/18 21:14:51;;;;;;;14.77;13.30;;;;;;;13.51;87.42;100290.88;10425327;28;20071;-62
2024/03/18 21:19:51;;;;;;;15.10;13.60;;;;;;;13.54;87.16;100295.94;10397718;28;20141;-62
2024/03/18 21:24:52;;;;;;;13.80;12.40;;;;;;;13.51;87.66;100290.00;10430242;28;20055;-59
2024/03/18 21:29:52;;;;;;;14.85;11.88;;;;;;;13.50;87.77;100293.69;10428146;28;20291;-61
2024/03/18 21:34:53;;;;;;;15.13;13.10;;;;;;;13.44;88.26;100295.09;10428402;28;20040;-62
2024/03/18 21:39:53;;;;;;;15.63;12.75;;;;;;;13.37;88.25;100302.81;10394374;28;20057;-62
2024/03/18 21:44:54;;;;;;;12.02;10.90;;;;;;;13.32;88.31;100306.91;10432757;28;20053;-62
2024/03/18 21:49:56;;;;;;;11.68;10.48;;;;;;;13.27;88.38;100301.97;10421591;28;20111;-62
2024/03/18 21:54:57;;;;;;;11.85;10.65;;;;;;;13.19;88.65;100283.94;10427250;28;20206;-63
2024/03/18 21:59:58;;;;;;;12.73;11.38;;;;;;;13.22;88.87;100288.16;10426017;28;20132;-60
2024/03/18 22:04:59;;;;;;;11.40;10.30;;;;;;;13.26;88.46;100297.59;10427494;28;20055;-61
2024/03/18 22:10:00;;;;;;;10.32;9.32;;;;;;;13.27;88.13;100293.94;10394615;28;20156;-60
2024/03/18 22:15:02;;;;;;;11.75;10.50;;;;;;;13.22;87.81;100298.84;10414474;28;20136;-62
2024/03/18 22:20:03;;;;;;;12.10;10.90;;;;;;;13.13;87.95;100299.69;10412037;28;20160;-62
2024/03/18 22:25:04;;;;;;;11.88;10.65;;;;;;;13.11;88.27;100301.66;10425444;28;20128;-61
2024/03/18 22:30:06;;;;;;;13.00;11.68;;;;;;;13.02;88.54;100301.50;10411254;28;20064;-62
2024/03/18 22:35:09;;;;;;;13.25;11.95;;;;;;;12.98;88.29;100304.59;10427010;28;20135;-62
2024/03/18 22:40:14;;;;;;;11.60;10.40;;;;;;;12.98;88.11;100297.41;10401382;28;20131;-61
2024/03/18 22:45:15;;;;;;;13.55;11.23;;;;;;;12.97;87.87;100297.53;10407328;28;20223;-62
2024/03/18 22:50:15;;;;;;;11.25;10.23;;;;;;;12.97;87.68;100303.75;10382533;28;20406;-61
2024/03/18 22:55:16;;;;;;;11.23;10.15;;;;;;;12.98;87.40;100297.41;10427150;28;20072;-62
2024/03/18 23:00:20;;;;;;;10.38;9.45;;;;;;;12.95;87.10;100308.38;10415837;28;20053;-60
2024/03/18 23:05:20;;;;;;;10.70;9.57;;;;;;;12.94;87.10;100305.84;10420068;28;20168;-60